Time;durP1;ratioP1;P1;durP2;ratioP2;P2;SDS_P1;SDS_P2;PMS_P1;PMS_P2;Temp;Humidity;BMP_temperature;BMP_pressure;BME280_temperature;BME280_humidity;BME280_pressure;Samples;Min_cycle;Max_cycle;Signal;HPM_P1;HPM_P2
2022/11/22 00:00:15;;;;;;;67.43;7.63;;;7.30;99.90;;;;;;5037387;28;20184;-86
2022/11/22 00:02:41;;;;;;;70.97;8.85;;;7.20;99.90;;;;;;5037433;28;20579;-86
2022/11/22 00:05:07;;;;;;;72.20;9.83;;;7.20;99.90;;;;;;5037919;28;20199;-86
2022/11/22 00:07:33;;;;;;;67.82;7.55;;;7.30;99.90;;;;;;5038825;28;20196;-86
2022/11/22 00:09:59;;;;;;;66.40;8.70;;;7.30;99.90;;;;;;5037195;28;20562;-86
2022/11/22 00:12:24;;;;;;;68.50;9.57;;;7.30;99.90;;;;;;5038903;28;20164;-87
2022/11/22 00:14:50;;;;;;;77.33;9.93;;;7.30;99.90;;;;;;5039059;28;20520;-86
2022/11/22 00:17:16;;;;;;;69.53;10.40;;;7.20;99.90;;;;;;5038263;28;20173;-86
2022/11/22 00:19:42;;;;;;;69.37;8.40;;;7.20;99.90;;;;;;5038281;28;20205;-86
2022/11/22 00:22:07;;;;;;;67.53;7.10;;;7.30;99.90;;;;;;5037135;28;20694;-86
2022/11/22 00:24:33;;;;;;;67.70;8.07;;;7.30;99.90;;;;;;5038867;28;20183;-86
2022/11/22 00:26:59;;;;;;;71.50;8.20;;;7.40;99.90;;;;;;5037268;28;20173;-86
2022/11/22 00:29:25;;;;;;;70.17;10.53;;;7.50;99.90;;;;;;5036558;28;20423;-86
2022/11/22 00:31:51;;;;;;;67.30;9.00;;;7.40;99.90;;;;;;5038288;28;20396;-86
2022/11/22 00:34:17;;;;;;;67.20;8.43;;;7.40;99.90;;;;;;5038190;28;20917;-86
2022/11/22 00:36:42;;;;;;;72.60;9.00;;;7.40;99.90;;;;;;5038365;28;20539;-86
2022/11/22 00:39:08;;;;;;;67.83;7.47;;;7.40;99.90;;;;;;5037743;28;20177;-86
2022/11/22 00:41:34;;;;;;;65.40;8.63;;;7.40;99.90;;;;;;5037575;28;20176;-86
2022/11/22 00:43:59;;;;;;;68.30;10.00;;;7.40;99.90;;;;;;5038950;28;20221;-86
2022/11/22 00:46:25;;;;;;;68.23;9.00;;;7.40;99.90;;;;;;5038797;28;20177;-86
2022/11/22 00:48:50;;;;;;;69.80;8.83;;;7.30;99.90;;;;;;5039161;28;20307;-86
2022/11/22 00:51:16;;;;;;;66.80;7.90;;;7.30;99.90;;;;;;5040418;28;20192;-86
2022/11/22 00:53:42;;;;;;;67.30;9.90;;;7.20;99.90;;;;;;5042333;28;20169;-86
2022/11/22 00:56:08;;;;;;;68.30;7.90;;;7.20;99.90;;;;;;5043065;28;20170;-86
2022/11/22 00:58:33;;;;;;;72.17;10.20;;;7.20;99.90;;;;;;5043258;28;20193;-86
2022/11/22 01:00:59;;;;;;;67.27;8.07;;;7.30;99.90;;;;;;5043094;28;20189;-86
2022/11/22 01:03:25;;;;;;;71.30;8.40;;;7.30;99.90;;;;;;5043491;28;20169;-86
2022/11/22 01:05:50;;;;;;;74.80;9.97;;;7.20;99.90;;;;;;5041725;28;20233;-86
2022/11/22 01:08:16;;;;;;;68.03;9.57;;;7.10;99.90;;;;;;5042555;28;20404;-86
2022/11/22 01:10:42;;;;;;;67.30;8.87;;;7.20;99.90;;;;;;5040415;28;20637;-86
2022/11/22 01:13:09;;;;;;;67.30;8.23;;;7.20;99.90;;;;;;5041165;28;20165;-86
2022/11/22 01:15:35;;;;;;;67.75;7.85;;;7.20;99.90;;;;;;5041896;28;20176;-86
2022/11/22 01:18:01;;;;;;;66.57;8.68;;;7.10;99.90;;;;;;5041174;28;20201;-86
2022/11/22 01:20:26;;;;;;;71.70;9.30;;;7.10;99.90;;;;;;5040527;28;20212;-86
2022/11/22 01:22:52;;;;;;;67.63;8.67;;;7.10;99.90;;;;;;5042189;28;20158;-86
2022/11/22 01:25:18;;;;;;;73.38;9.15;;;7.10;99.90;;;;;;5042465;28;20212;-86
2022/11/22 01:27:44;;;;;;;69.60;7.40;;;7.10;99.90;;;;;;5040899;28;20173;-86
2022/11/22 01:30:10;;;;;;;67.90;9.10;;;7.00;99.90;;;;;;5042152;28;20192;-86
2022/11/22 01:32:36;;;;;;;67.18;8.63;;;7.00;99.90;;;;;;5041894;28;20180;-86
2022/11/22 01:35:01;;;;;;;68.07;8.83;;;6.90;99.90;;;;;;5042183;28;20169;-86
2022/11/22 01:37:27;;;;;;;67.50;9.20;;;6.90;99.90;;;;;;5040717;28;20543;-86
2022/11/22 01:39:52;;;;;;;68.57;9.60;;;6.90;99.90;;;;;;5040087;28;20291;-86
2022/11/22 01:42:18;;;;;;;68.87;8.27;;;6.90;99.90;;;;;;5040351;28;20176;-86
2022/11/22 01:44:47;;;;;;;68.37;10.03;;;6.80;99.90;;;;;;5041704;28;20635;-86
2022/11/22 01:47:20;;;;;;;66.55;8.95;;;6.80;99.90;;;;;;5042830;28;20207;-86
2022/11/22 01:49:55;;;;;;;66.63;8.82;;;6.80;99.90;;;;;;5041635;28;20200;-85
2022/11/22 01:52:24;;;;;;;67.53;9.00;;;6.70;99.90;;;;;;5042070;28;20160;-86
2022/11/22 01:55:08;;;;;;;67.05;8.27;;;6.70;99.90;;;;;;5042224;28;20165;-86
2022/11/22 01:57:37;;;;;;;66.32;8.45;;;6.70;99.90;;;;;;5040052;28;20654;-86
2022/11/22 02:00:11;;;;;;;65.40;6.85;;;6.60;99.90;;;;;;5039688;28;20578;-86
2022/11/22 02:02:37;;;;;;;68.20;8.48;;;6.60;99.90;;;;;;5040869;28;20161;-86
2022/11/22 02:05:07;;;;;;;65.07;8.20;;;6.60;99.90;;;;;;5040796;28;20172;-86
2022/11/22 02:07:55;;;;;;;66.32;8.40;;;6.50;99.90;;;;;;5040990;28;20164;-86
2022/11/22 02:10:23;;;;;;;66.30;7.50;;;6.50;99.90;;;;;;5041601;28;20192;-86
2022/11/22 02:12:52;;;;;;;68.20;8.85;;;6.50;99.90;;;;;;5041061;28;20567;-86
2022/11/22 02:15:17;;;;;;;68.65;8.63;;;6.60;99.90;;;;;;5041145;28;20176;-86
2022/11/22 02:17:43;;;;;;;69.93;8.97;;;6.50;99.90;;;;;;5040562;28;20177;-86
2022/11/22 02:20:09;;;;;;;66.47;9.93;;;6.50;99.90;;;;;;5041241;28;20208;-86
2022/11/22 02:22:54;;;;;;;66.28;8.50;;;6.50;99.90;;;;;;5039859;28;20169;-86
2022/11/22 02:25:47;;;;;;;65.63;8.13;;;6.40;99.90;;;;;;5040337;28;20183;-86
2022/11/22 02:28:13;;;;;;;68.50;7.90;;;6.40;99.90;;;;;;5039406;28;20538;-86
2022/11/22 02:30:43;;;;;;;65.83;8.47;;;6.30;99.90;;;;;;5040318;28;20235;-86
2022/11/22 02:33:09;;;;;;;66.03;7.93;;;6.30;99.90;;;;;;5039432;28;20177;-86
2022/11/22 02:35:35;;;;;;;71.88;9.65;;;6.30;99.90;;;;;;5040990;28;20634;-86
2022/11/22 02:38:09;;;;;;;65.17;7.23;;;6.30;99.90;;;;;;5040664;28;20180;-86
2022/11/22 02:41:00;;;;;;;65.72;7.70;;;6.30;99.90;;;;;;5039558;28;20428;-86
2022/11/22 02:43:30;;;;;;;71.13;7.47;;;6.20;99.90;;;;;;5040690;28;20157;-86
2022/11/22 02:46:03;;;;;;;66.80;8.38;;;6.20;99.90;;;;;;5040068;28;20554;-86
2022/11/22 02:48:32;;;;;;;66.82;8.50;;;6.20;99.90;;;;;;5040308;28;20146;-86
2022/11/22 02:50:57;;;;;;;68.95;8.35;;;6.20;99.90;;;;;;5039371;28;20212;-86
2022/11/22 02:53:23;;;;;;;65.93;7.53;;;6.20;99.90;;;;;;5040290;28;20184;-86
2022/11/22 02:55:49;;;;;;;67.07;7.97;;;6.10;99.90;;;;;;5040778;28;20400;-86
2022/11/22 02:58:15;;;;;;;67.53;8.00;;;6.10;99.90;;;;;;5040260;28;20439;-86
2022/11/22 03:00:40;;;;;;;70.90;9.07;;;6.00;99.90;;;;;;5040120;28;20424;-86
2022/11/22 03:03:06;;;;;;;65.87;9.10;;;6.00;99.90;;;;;;5039964;28;20218;-86
2022/11/22 03:05:32;;;;;;;66.07;8.50;;;6.00;99.90;;;;;;5040212;28;20166;-86
2022/11/22 03:07:58;;;;;;;70.67;9.30;;;6.00;99.90;;;;;;5040325;28;20574;-86
2022/11/22 03:10:24;;;;;;;66.60;9.60;;;6.00;99.90;;;;;;5040386;28;20211;-86
2022/11/22 03:12:50;;;;;;;69.00;10.20;;;6.00;99.90;;;;;;5039771;28;20400;-86
2022/11/22 03:15:16;;;;;;;66.25;8.18;;;6.00;99.90;;;;;;5038912;28;20404;-86
2022/11/22 03:17:41;;;;;;;67.53;7.63;;;6.00;99.90;;;;;;5037867;28;20176;-86
2022/11/22 03:20:07;;;;;;;66.50;8.67;;;6.10;99.90;;;;;;5037731;28;20204;-86
2022/11/22 03:22:33;;;;;;;69.28;8.85;;;6.10;99.90;;;;;;5038120;28;20180;-86
2022/11/22 03:24:59;;;;;;;69.80;9.83;;;6.10;99.90;;;;;;5039568;28;20165;-86
2022/11/22 03:27:24;;;;;;;67.73;10.17;;;6.00;99.90;;;;;;5038019;28;20215;-86
2022/11/22 03:29:50;;;;;;;68.40;10.07;;;5.90;99.90;;;;;;5038916;28;20245;-86
2022/11/22 03:32:16;;;;;;;68.33;8.67;;;5.90;99.90;;;;;;5039248;28;20165;-86
2022/11/22 03:34:41;;;;;;;68.00;9.73;;;5.80;99.90;;;;;;5038653;28;20176;-86
2022/11/22 03:37:07;;;;;;;67.10;8.20;;;5.80;99.90;;;;;;5038699;28;20655;-86
2022/11/22 03:39:33;;;;;;;66.40;8.50;;;5.70;99.90;;;;;;5039052;28;20196;-86
2022/11/22 03:41:58;;;;;;;65.10;6.53;;;5.70;99.90;;;;;;5037795;28;20172;-86
2022/11/22 03:44:24;;;;;;;71.63;8.63;;;5.70;99.90;;;;;;5037433;28;20184;-86
2022/11/22 03:46:49;;;;;;;65.70;6.53;;;5.70;99.90;;;;;;5039128;28;20177;-86
2022/11/22 03:49:15;;;;;;;69.53;8.37;;;5.60;99.90;;;;;;5037220;28;20169;-86
2022/11/22 03:51:41;;;;;;;66.50;9.93;;;5.50;99.90;;;;;;5037282;28;20263;-85
2022/11/22 03:54:06;;;;;;;74.10;9.33;;;5.60;99.90;;;;;;5038848;28;20260;-86
2022/11/22 03:56:32;;;;;;;70.93;9.10;;;5.60;99.90;;;;;;5037881;28;20551;-86
2022/11/22 03:58:58;;;;;;;68.70;9.00;;;5.70;99.90;;;;;;5039061;28;20196;-86
2022/11/22 04:01:23;;;;;;;67.67;8.30;;;5.60;99.90;;;;;;5039480;28;20185;-86
2022/11/22 04:03:49;;;;;;;68.70;10.30;;;5.70;99.90;;;;;;5039160;28;20195;-86
2022/11/22 04:06:15;;;;;;;69.00;12.53;;;5.60;99.90;;;;;;5039320;28;20209;-86
2022/11/22 04:08:40;;;;;;;74.50;9.90;;;5.70;99.90;;;;;;5037948;28;20235;-86
2022/11/22 04:11:06;;;;;;;73.30;10.10;;;5.60;99.90;;;;;;5039731;28;20185;-86
2022/11/22 04:16:16;;;;;;;76.00;9.90;;;5.60;99.90;;;;;;5039395;28;20645;-86
2022/11/22 04:18:41;;;;;;;67.10;8.23;;;5.50;99.90;;;;;;5038726;28;20197;-86
2022/11/22 04:26:36;;;;;;;72.75;10.95;;;5.50;99.90;;;;;;5040974;28;20194;-86
2022/11/22 04:29:02;;;;;;;73.30;11.57;;;5.50;99.90;;;;;;5043110;28;20174;-86
2022/11/22 04:34:12;;;;;;;70.50;10.13;;;5.50;99.90;;;;;;5042994;28;20295;-86
2022/11/22 04:36:37;;;;;;;71.30;9.00;;;5.50;99.90;;;;;;5041437;28;20197;-86
2022/11/22 04:39:03;;;;;;;71.20;10.27;;;5.50;99.90;;;;;;5041311;28;20189;-86
2022/11/22 04:41:29;;;;;;;69.70;8.47;;;5.50;99.90;;;;;;5041771;28;20166;-86
2022/11/22 04:46:39;;;;;;;66.75;8.77;;;5.50;99.90;;;;;;5042199;28;20189;-86
2022/11/22 04:49:05;;;;;;;76.27;10.00;;;5.50;99.90;;;;;;5041490;28;20173;-86
2022/11/22 04:54:15;;;;;;;72.00;8.45;;;5.40;99.90;;;;;;5042882;28;20411;-86
2022/11/22 04:56:40;;;;;;;69.33;9.50;;;5.40;99.90;;;;;;5042076;28;20169;-86
2022/11/22 04:59:06;;;;;;;76.33;10.53;;;5.40;99.90;;;;;;5042028;28;20189;-86
2022/11/22 05:01:32;;;;;;;76.57;10.33;;;5.40;99.90;;;;;;5040367;28;20215;-86
2022/11/22 05:03:57;;;;;;;68.80;10.40;;;5.50;99.90;;;;;;5042444;28;20165;-86
2022/11/22 05:06:23;;;;;;;75.80;9.57;;;5.50;99.90;;;;;;5041980;28;20256;-85
2022/11/22 05:08:48;;;;;;;76.97;11.30;;;5.50;99.90;;;;;;5040142;28;20173;-85
2022/11/22 05:11:14;;;;;;;71.10;10.07;;;5.40;99.90;;;;;;5040276;28;20243;-86
2022/11/22 05:13:41;;;;;;;69.00;10.53;;;5.30;99.90;;;;;;5041543;28;20165;-86
2022/11/22 05:16:09;;;;;;;70.00;9.23;;;5.30;99.90;;;;;;5040678;28;20173;-86
2022/11/22 05:18:36;;;;;;;75.50;9.02;;;5.30;99.90;;;;;;5041127;28;20189;-86
2022/11/22 05:21:14;;;;;;;71.38;12.02;;;5.30;99.90;;;;;;5039588;28;20195;-86
2022/11/22 05:23:55;;;;;;;71.20;11.18;;;5.20;99.90;;;;;;5042088;28;20235;-86
2022/11/22 05:26:31;;;;;;;71.10;10.05;;;5.20;99.90;;;;;;5041944;28;20773;-86
2022/11/22 05:28:58;;;;;;;69.70;8.95;;;5.20;99.90;;;;;;5042008;28;20150;-86
2022/11/22 05:31:26;;;;;;;70.75;10.13;;;5.20;99.90;;;;;;5041198;28;20201;-86
2022/11/22 05:33:56;;;;;;;71.63;10.27;;;5.20;99.90;;;;;;5040457;28;20199;-86
2022/11/22 05:36:23;;;;;;;68.30;9.02;;;5.20;99.90;;;;;;5042228;28;20546;-86
2022/11/22 05:38:49;;;;;;;71.38;10.38;;;5.10;99.90;;;;;;5039002;28;20216;-86
2022/11/22 05:41:16;;;;;;;76.80;8.85;;;5.10;99.90;;;;;;5041171;28;20193;-86
2022/11/22 05:43:42;;;;;;;66.68;9.70;;;5.10;99.90;;;;;;5024061;28;20173;-86
2022/11/22 05:46:10;;;;;;;78.50;10.40;;;5.00;99.90;;;;;;5153203;22;20224;-86
2022/11/22 05:48:37;;;;;;;77.13;10.48;;;5.10;99.90;;;;;;5043218;28;20173;-86
2022/11/22 05:51:05;;;;;;;68.82;10.75;;;5.10;99.90;;;;;;5042039;28;20237;-85
2022/11/22 05:53:31;;;;;;;78.00;11.50;;;5.10;99.90;;;;;;5042650;28;20165;-86
2022/11/22 05:55:57;;;;;;;69.45;11.77;;;5.10;99.90;;;;;;5042517;28;20165;-85
2022/11/22 05:58:22;;;;;;;79.07;10.83;;;5.10;99.90;;;;;;5042297;28;20621;-85
2022/11/22 06:00:48;;;;;;;71.00;10.33;;;5.10;99.90;;;;;;5043452;28;20208;-86
2022/11/22 06:03:14;;;;;;;72.50;10.47;;;5.10;99.90;;;;;;5042160;28;20157;-85
2022/11/22 06:05:42;;;;;;;70.03;9.70;;;5.10;99.90;;;;;;5041594;28;20248;-85
2022/11/22 06:08:08;;;;;;;74.70;12.07;;;5.10;99.90;;;;;;5041851;28;20169;-86
2022/11/22 06:10:36;;;;;;;70.25;11.90;;;5.10;99.90;;;;;;5042392;28;20223;-85
2022/11/22 06:13:01;;;;;;;73.03;12.10;;;5.10;99.90;;;;;;5041357;28;20207;-85
2022/11/22 06:15:28;;;;;;;73.27;11.43;;;5.10;99.90;;;;;;5043721;28;20172;-85
2022/11/22 06:17:54;;;;;;;77.50;13.00;;;5.00;99.90;;;;;;5041069;28;20165;-85
2022/11/22 06:20:19;;;;;;;75.13;11.30;;;5.10;99.90;;;;;;5041946;28;20239;-85
2022/11/22 06:22:45;;;;;;;74.30;11.50;;;5.10;99.90;;;;;;5041531;28;20240;-85
2022/11/22 06:25:11;;;;;;;75.10;11.07;;;5.10;99.90;;;;;;5040419;28;20158;-85
2022/11/22 06:27:37;;;;;;;73.10;11.90;;;5.10;99.90;;;;;;5039487;28;20714;-85
2022/11/22 06:30:03;;;;;;;74.10;13.27;;;5.00;99.90;;;;;;5038723;28;20216;-85
2022/11/22 06:32:32;;;;;;;73.80;11.90;;;5.00;99.90;;;;;;5040733;28;20161;-85
2022/11/22 06:34:58;;;;;;;72.75;11.00;;;5.00;99.90;;;;;;5039871;28;20180;-85
2022/11/22 06:37:24;;;;;;;79.88;12.68;;;5.00;99.90;;;;;;5039509;28;20169;-85
2022/11/22 06:39:50;;;;;;;78.40;13.33;;;5.00;99.90;;;;;;5040557;28;20193;-85
2022/11/22 06:42:15;;;;;;;78.30;13.40;;;5.00;99.90;;;;;;5038886;28;20165;-85
2022/11/22 06:44:41;;;;;;;74.17;13.77;;;5.00;99.90;;;;;;5039079;28;20195;-85
2022/11/22 06:47:07;;;;;;;78.67;12.53;;;4.90;99.90;;;;;;5039133;28;20197;-84
2022/11/22 06:49:32;;;;;;;70.37;11.60;;;4.90;99.90;;;;;;5040273;28;20188;-85
2022/11/22 06:51:58;;;;;;;73.23;12.40;;;4.80;99.90;;;;;;5040370;28;20165;-85
2022/11/22 06:54:24;;;;;;;90.03;13.20;;;4.90;99.90;;;;;;5040022;28;20192;-85
2022/11/22 06:56:49;;;;;;;75.10;11.70;;;4.90;99.90;;;;;;5040427;28;20546;-84
2022/11/22 06:59:15;;;;;;;79.63;10.60;;;5.00;99.90;;;;;;5038082;28;20197;-85
2022/11/22 07:01:40;;;;;;;75.37;11.50;;;4.90;99.90;;;;;;5037759;28;20748;-84
2022/11/22 07:04:06;;;;;;;81.80;10.87;;;4.90;99.90;;;;;;5039424;28;20204;-84
2022/11/22 07:06:37;;;;;;;72.43;10.80;;;4.90;99.90;;;;;;5037367;28;20169;-84
2022/11/22 07:09:07;;;;;;;72.80;10.10;;;4.90;99.90;;;;;;5039960;28;20181;-84
2022/11/22 07:11:33;;;;;;;71.03;8.75;;;5.00;99.90;;;;;;5037960;28;20204;-84
2022/11/22 07:14:00;;;;;;;74.32;10.15;;;5.00;99.90;;;;;;5039413;28;20173;-84
2022/11/22 07:16:27;;;;;;;71.85;9.75;;;5.10;99.90;;;;;;5040023;28;20173;-85
2022/11/22 07:18:53;;;;;;;81.95;10.30;;;5.00;99.90;;;;;;5040173;28;20192;-85
2022/11/22 07:21:20;;;;;;;70.93;8.63;;;5.00;99.90;;;;;;5038695;28;20212;-85
2022/11/22 07:23:48;;;;;;;75.28;8.40;;;5.00;99.90;;;;;;5038215;28;20237;-84
2022/11/22 07:26:15;;;;;;;77.07;7.50;;;5.00;99.90;;;;;;5040043;28;20216;-85
2022/11/22 07:28:42;;;;;;;71.20;7.90;;;5.10;99.90;;;;;;5038483;28;20181;-84
2022/11/22 07:31:09;;;;;;;72.18;7.55;;;5.10;99.90;;;;;;5039832;28;20276;-84
2022/11/22 07:33:35;;;;;;;73.10;9.70;;;5.10;99.90;;;;;;5040753;28;20166;-85
2022/11/22 07:36:09;;;;;;;72.70;11.63;;;5.20;99.90;;;;;;5038210;28;20180;-85
2022/11/22 07:38:35;;;;;;;76.15;9.45;;;5.20;99.90;;;;;;5037860;28;20180;-85
2022/11/22 07:41:01;;;;;;;69.50;7.37;;;5.20;99.90;;;;;;5038898;28;20181;-85
2022/11/22 07:43:27;;;;;;;67.97;7.17;;;5.10;99.90;;;;;;5039522;28;20161;-85
2022/11/22 07:45:52;;;;;;;74.38;8.38;;;5.20;99.90;;;;;;5038403;28;20185;-85
2022/11/22 07:48:18;;;;;;;71.30;7.40;;;5.30;99.90;;;;;;5039414;28;20173;-85
2022/11/22 07:50:44;;;;;;;80.20;9.90;;;5.30;99.90;;;;;;5039676;28;20268;-85
2022/11/22 07:53:09;;;;;;;69.10;7.43;;;5.30;99.90;;;;;;5038926;28;20179;-85
2022/11/22 07:55:35;;;;;;;71.00;8.97;;;5.30;99.90;;;;;;5041598;28;20165;-85
2022/11/22 07:58:01;;;;;;;72.33;10.17;;;5.30;99.90;;;;;;5040153;28;20168;-84
2022/11/22 08:00:27;;;;;;;75.22;10.73;;;5.40;99.90;;;;;;5039665;28;20240;-85
2022/11/22 08:02:54;;;;;;;70.10;11.05;;;5.40;99.90;;;;;;5044940;28;20165;-85
2022/11/22 08:05:20;;;;;;;92.68;14.00;;;5.50;99.90;;;;;;5045481;28;20162;-85
2022/11/22 08:07:50;;;;;;;74.97;11.32;;;5.50;99.90;;;;;;5045053;28;20173;-85
2022/11/22 08:10:17;;;;;;;73.38;10.98;;;5.40;99.90;;;;;;5043663;28;20205;-85
2022/11/22 08:12:43;;;;;;;73.43;10.45;;;5.40;99.90;;;;;;5043603;28;20173;-85
2022/11/22 08:15:10;;;;;;;70.95;10.98;;;5.40;99.90;;;;;;5043621;28;20168;-85
2022/11/22 08:17:37;;;;;;;71.38;9.00;;;5.50;99.90;;;;;;5043855;28;20256;-85
2022/11/22 08:20:04;;;;;;;70.35;11.60;;;5.50;99.90;;;;;;5041587;28;20197;-85
2022/11/22 08:22:29;;;;;;;72.50;8.27;;;5.60;99.90;;;;;;5044398;28;20165;-85
2022/11/22 08:24:55;;;;;;;69.03;9.43;;;5.60;99.90;;;;;;5043755;28;20172;-85
2022/11/22 08:27:21;;;;;;;71.23;10.87;;;5.70;99.90;;;;;;5044825;28;20240;-85
2022/11/22 08:29:46;;;;;;;70.27;9.47;;;5.80;99.90;;;;;;5043979;28;20307;-84
2022/11/22 08:32:12;;;;;;;70.43;9.03;;;5.80;99.90;;;;;;5044002;28;20594;-85
2022/11/22 08:34:40;;;;;;;67.33;8.43;;;5.80;99.90;;;;;;5043171;28;20169;-85
2022/11/22 08:37:06;;;;;;;68.90;7.55;;;5.70;99.90;;;;;;5042993;28;20168;-85
2022/11/22 08:39:32;;;;;;;71.30;9.10;;;5.70;99.90;;;;;;5042815;28;20201;-84
2022/11/22 08:41:57;;;;;;;70.47;8.30;;;5.80;99.90;;;;;;5043011;28;20200;-85
2022/11/22 08:44:23;;;;;;;73.77;9.53;;;5.90;99.90;;;;;;5045013;28;20623;-85
2022/11/22 08:46:49;;;;;;;72.90;8.67;;;6.10;99.90;;;;;;5043271;28;20216;-85
2022/11/22 08:49:15;;;;;;;66.30;7.23;;;6.10;99.90;;;;;;5043987;28;20419;-84
2022/11/22 08:51:49;;;;;;;94.27;9.43;;;6.20;99.90;;;;;;5042205;28;20539;-85
2022/11/22 08:54:15;;;;;;;73.25;10.80;;;6.40;99.90;;;;;;5042533;28;20163;-85
2022/11/22 08:56:41;;;;;;;71.17;9.53;;;6.50;99.90;;;;;;5043168;28;20252;-85
2022/11/22 08:59:07;;;;;;;71.60;10.93;;;6.60;99.90;;;;;;5042177;28;20439;-84
2022/11/22 09:01:33;;;;;;;68.70;10.10;;;6.60;99.90;;;;;;5043043;28;20203;-85
2022/11/22 09:03:59;;;;;;;72.22;9.65;;;6.70;99.90;;;;;;5042281;28;20404;-85
2022/11/22 09:06:27;;;;;;;70.17;9.77;;;6.90;99.90;;;;;;5043035;28;20168;-84
2022/11/22 09:08:53;;;;;;;68.45;7.72;;;7.00;99.90;;;;;;5041195;28;20412;-85
2022/11/22 09:11:21;;;;;;;69.30;5.53;;;7.10;99.90;;;;;;5040007;28;20231;-85
2022/11/22 09:13:47;;;;;;;70.43;5.30;;;7.20;99.90;;;;;;5041287;28;20256;-84
2022/11/22 09:16:15;;;;;;;67.07;5.40;;;7.30;99.90;;;;;;5041979;28;20196;-84
2022/11/22 09:18:44;;;;;;;72.75;5.60;;;7.30;99.90;;;;;;5041213;28;20748;-84
2022/11/22 09:21:18;;;;;;;71.80;6.40;;;7.30;99.90;;;;;;5041567;28;20597;-84
2022/11/22 09:23:45;;;;;;;67.15;4.95;;;7.40;99.90;;;;;;5040787;28;20150;-84
2022/11/22 09:26:14;;;;;;;67.47;5.50;;;7.50;99.90;;;;;;5040407;28;20172;-84
2022/11/22 09:28:40;;;;;;;68.75;5.03;;;7.60;99.90;;;;;;5041287;28;20649;-85
2022/11/22 09:31:08;;;;;;;69.87;5.37;;;7.60;99.90;;;;;;5040125;28;20189;-84
2022/11/22 09:33:36;;;;;;;71.25;5.10;;;7.60;99.90;;;;;;5040383;28;20169;-84
2022/11/22 09:36:06;;;;;;;69.65;5.80;;;7.60;99.90;;;;;;5040573;28;20165;-84
2022/11/22 09:38:33;;;;;;;69.28;4.78;;;7.70;99.90;;;;;;5041723;28;20203;-84
2022/11/22 09:41:12;;;;;;;67.10;4.30;;;7.80;99.90;;;;;;5041547;28;20183;-84
2022/11/22 09:44:06;;;;;;;67.78;5.57;;;7.70;99.90;;;;;;5040773;28;20149;-84
2022/11/22 09:46:52;;;;;;;70.28;4.45;;;7.80;99.90;;;;;;5039722;28;20192;-84
2022/11/22 09:49:20;;;;;;;69.95;5.05;;;7.70;99.90;;;;;;5039383;28;20168;-84
2022/11/22 09:52:00;;;;;;;75.63;5.35;;;7.80;99.90;;;;;;5040621;28;20593;-84
2022/11/22 09:54:49;;;;;;;68.90;5.30;;;7.80;99.90;;;;;;5041011;28;20161;-84
2022/11/22 09:57:25;;;;;;;67.60;5.28;;;7.80;99.90;;;;;;5038848;28;20169;-84
2022/11/22 10:00:06;;;;;;;68.82;6.50;;;7.90;99.90;;;;;;5040651;28;20196;-84
2022/11/22 10:02:44;;;;;;;67.20;5.75;;;8.00;99.90;;;;;;5040149;28;20168;-84
2022/11/22 10:05:17;;;;;;;68.95;5.95;;;8.00;99.90;;;;;;5040859;28;20691;-84
2022/11/22 10:07:53;;;;;;;70.50;5.60;;;8.00;99.90;;;;;;5041046;28;20611;-84
2022/11/22 10:10:25;;;;;;;69.00;5.20;;;8.00;99.90;;;;;;5039725;28;20674;-84
2022/11/22 10:13:35;;;;;;;65.32;6.20;;;8.00;99.90;;;;;;5040608;28;20162;-84
2022/11/22 10:16:32;;;;;;;67.85;5.53;;;8.20;99.90;;;;;;5018211;28;20177;-84
2022/11/22 10:19:12;;;;;;;72.15;4.95;;;8.40;99.90;;;;;;5007670;28;20291;-84
2022/11/22 10:21:38;;;;;;;66.88;4.60;;;8.60;99.90;;;;;;5035977;28;20201;-84
2022/11/22 10:24:15;;;;;;;67.53;4.60;;;8.60;97.20;;;;;;5037652;28;20216;-84
2022/11/22 10:26:41;;;;;;;67.60;4.25;;;8.70;99.90;;;;;;5038468;28;20188;-84
2022/11/22 10:29:16;;;;;;;68.82;4.03;;;8.60;99.90;;;;;;5038271;28;20177;-83
2022/11/22 10:31:57;;;;;;;67.22;4.32;;;8.80;99.90;;;;;;5039676;28;20153;-84
2022/11/22 10:34:41;;;;;;;66.72;4.63;;;8.80;95.60;;;;;;5039907;28;20153;-84
2022/11/22 10:37:12;;;;;;;66.38;4.85;;;8.80;97.10;;;;;;5038860;28;20190;-84
2022/11/22 10:39:48;;;;;;;65.90;5.60;;;9.00;95.90;;;;;;5040081;28;20225;-84
2022/11/22 10:42:48;;;;;;;66.75;5.07;;;8.90;92.40;;;;;;5041850;28;20527;-84
2022/11/22 10:45:16;;;;;;;66.15;4.20;;;8.80;95.70;;;;;;5038968;28;20169;-84
2022/11/22 10:48:15;;;;;;;68.63;4.50;;;8.80;92.70;;;;;;5038967;28;20165;-84
2022/11/22 10:51:09;;;;;;;67.90;4.78;;;8.80;92.90;;;;;;5037663;28;20198;-84
2022/11/22 10:53:58;;;;;;;66.18;4.60;;;8.90;92.60;;;;;;5039159;28;20154;-84
2022/11/22 10:57:01;;;;;;;72.85;6.40;;;9.10;94.50;;;;;;5037422;28;20211;-84
2022/11/22 10:59:33;;;;;;;66.18;4.57;;;9.30;90.30;;;;;;5036127;28;20236;-84
2022/11/22 11:02:12;;;;;;;65.25;4.35;;;9.30;74.40;;;;;;5038991;28;20162;-84
2022/11/22 11:04:40;;;;;;;69.95;3.80;;;9.30;87.20;;;;;;5038165;28;20243;-84
2022/11/22 11:07:13;;;;;;;67.18;3.78;;;9.20;80.60;;;;;;5038498;28;20171;-84
2022/11/22 11:09:53;;;;;;;66.72;3.95;;;9.10;72.30;;;;;;5038755;28;20185;-84
2022/11/22 11:12:23;;;;;;;64.60;3.78;;;9.20;76.90;;;;;;5038146;28;20229;-84
2022/11/22 11:14:54;;;;;;;65.80;3.42;;;9.10;76.10;;;;;;5037782;28;20168;-84
2022/11/22 11:17:28;;;;;;;66.22;3.60;;;9.30;78.20;;;;;;5039034;28;20584;-84
2022/11/22 11:19:58;;;;;;;68.57;4.25;;;9.30;72.60;;;;;;5039030;28;20211;-84
2022/11/22 11:22:27;;;;;;;65.47;3.97;;;9.20;75.70;;;;;;5039155;28;20504;-84
2022/11/22 11:24:52;;;;;;;64.57;3.63;;;9.30;72.60;;;;;;5038212;28;20195;-84
2022/11/22 11:27:20;;;;;;;68.90;4.10;;;9.30;66.40;;;;;;5038277;28;20166;-85
2022/11/22 11:30:48;;;;;;;64.65;3.70;;;9.30;61.10;;;;;;5039087;28;20189;-84
2022/11/22 11:33:24;;;;;;;66.75;3.70;;;9.40;65.80;;;;;;5036892;28;20236;-84
2022/11/22 11:35:53;;;;;;;64.90;3.70;;;9.50;59.60;;;;;;5038716;28;20236;-84
2022/11/22 11:38:40;;;;;;;65.03;3.30;;;9.50;61.50;;;;;;5037696;28;20169;-84
2022/11/22 11:41:27;;;;;;;65.07;3.95;;;9.50;64.40;;;;;;5038182;28;20203;-84
2022/11/22 11:43:55;;;;;;;64.38;3.63;;;9.40;56.80;;;;;;5037317;28;20223;-84
2022/11/22 11:46:23;;;;;;;64.97;3.60;;;9.20;55.40;;;;;;5110106;22;20224;-86
2022/11/22 11:48:51;;;;;;;64.70;3.80;;;9.30;64.60;;;;;;5040837;28;20176;-86
2022/11/22 11:51:21;;;;;;;65.57;3.80;;;9.30;54.50;;;;;;5039416;28;20192;-86
2022/11/22 11:54:00;;;;;;;67.10;4.53;;;9.30;61.80;;;;;;5039755;28;20180;-86
2022/11/22 11:56:36;;;;;;;67.82;4.05;;;9.40;53.30;;;;;;5039337;28;20149;-86
2022/11/22 11:59:10;;;;;;;64.97;3.47;;;9.20;53.20;;;;;;5038263;28;20184;-85
2022/11/22 12:01:36;;;;;;;64.70;3.67;;;9.20;52.60;;;;;;5039547;28;20150;-85
2022/11/22 12:04:04;;;;;;;66.10;3.65;;;9.10;55.30;;;;;;5040523;28;20173;-86
2022/11/22 12:06:31;;;;;;;65.65;3.83;;;9.10;57.50;;;;;;5038419;28;20631;-86
2022/11/22 12:08:58;;;;;;;65.38;3.38;;;9.10;59.10;;;;;;5041059;28;20610;-86
2022/11/22 12:11:40;;;;;;;66.70;3.78;;;9.00;60.70;;;;;;5038009;28;20558;-85
2022/11/22 12:14:11;;;;;;;68.28;4.18;;;9.10;67.60;;;;;;5038747;28;20611;-86
2022/11/22 12:16:43;;;;;;;66.00;4.43;;;9.10;67.60;;;;;;5038080;28;20166;-86
2022/11/22 12:19:35;;;;;;;64.50;3.90;;;9.10;66.40;;;;;;5038581;28;20184;-86
2022/11/22 12:22:08;;;;;;;69.35;4.80;;;9.10;73.90;;;;;;5038618;28;20146;-86
2022/11/22 12:24:55;;;;;;;66.35;4.00;;;9.10;67.60;;;;;;5037038;28;20154;-85
2022/11/22 12:27:21;;;;;;;65.63;3.38;;;9.00;61.40;;;;;;5037642;28;20161;-86
2022/11/22 12:29:47;;;;;;;64.90;3.53;;;9.00;63.20;;;;;;5038406;28;20219;-85
2022/11/22 12:32:26;;;;;;;65.37;3.80;;;9.00;65.50;;;;;;5039482;28;20174;-85
2022/11/22 12:35:30;;;;;;;69.75;3.80;;;9.00;69.20;;;;;;5038261;28;20173;-86
2022/11/22 12:38:07;;;;;;;66.70;3.92;;;8.90;69.90;;;;;;5026386;28;20181;-86
2022/11/22 12:40:46;;;;;;;65.90;4.05;;;9.00;77.30;;;;;;5038261;28;20724;-86
2022/11/22 12:43:38;;;;;;;73.68;4.28;;;9.00;81.00;;;;;;5038376;28;20149;-86
2022/11/22 12:46:10;;;;;;;70.40;4.00;;;9.00;78.50;;;;;;5036761;28;20688;-86
2022/11/22 12:48:39;;;;;;;64.70;3.60;;;9.00;80.10;;;;;;5042105;28;20488;-85
2022/11/22 12:51:32;;;;;;;68.53;3.65;;;9.00;84.00;;;;;;5041891;28;20312;-86
2022/11/22 12:54:02;;;;;;;66.68;3.60;;;9.00;84.70;;;;;;5040296;28;20220;-86
2022/11/22 12:56:33;;;;;;;64.90;3.60;;;9.10;83.00;;;;;;5042166;28;20157;-86
2022/11/22 12:59:01;;;;;;;67.15;4.30;;;9.10;79.60;;;;;;5040374;28;20181;-86
2022/11/22 13:01:36;;;;;;;64.45;3.50;;;9.10;74.90;;;;;;5040732;28;20207;-86
2022/11/22 13:04:10;;;;;;;65.57;3.40;;;9.20;76.80;;;;;;5041771;28;20169;-86
2022/11/22 13:07:02;;;;;;;65.45;4.00;;;9.20;72.70;;;;;;5042065;28;20152;-85
2022/11/22 13:09:32;;;;;;;66.72;4.32;;;9.20;77.70;;;;;;5041821;28;20189;-85
2022/11/22 13:12:19;;;;;;;65.07;3.13;;;9.30;77.10;;;;;;5041438;28;20161;-85
2022/11/22 13:14:51;;;;;;;63.33;3.17;;;9.30;68.40;;;;;;5043140;28;20211;-85